Clarksville, Texas
Current Conditions -  °F | °C
As of 12:15 AM on Sunday 26 Oct 2014 (Local Time) from KPRX Reporting Station
Clear Clear  
Wind Chill: 66°   Ceiling: Unl
Heat Index: 66°   Visibility: 10mi
Dew Point: 57°   Wind: 5mph
Humidity: 73%   Direction: 190°S
Pressure: 30.05"   Gusts: NA
Location:  33.61°N, 95.05°W
Report Text: KPRX 260515Z 19004KT 10SM CLR 19/14 A3005 RMK AO1
Loading
Personal Weather Stations






























Interactive Weather Map
Tropical Storm Tracking
New forecast layout! Learn more

10-Day Weather Forecast

Advertisements
Track Severe Weather on mobile